createdAt,value
2022-10-19T00:04:51.422Z,82.85
2022-10-19T00:09:54.210Z,83.01
2022-10-19T00:14:58.572Z,82.77
2022-10-19T00:20:01.271Z,82.94
2022-10-19T00:25:04.281Z,83.13
2022-10-19T00:30:09.863Z,82.98
2022-10-19T00:35:12.591Z,83.07
2022-10-19T00:40:15.305Z,83.29
2022-10-19T00:45:19.387Z,82.92
2022-10-19T00:50:22.515Z,83.14
2022-10-19T00:55:25.606Z,83.06
2022-10-19T01:00:29.809Z,82.88
2022-10-19T01:05:33.762Z,82.88
2022-10-19T01:10:47.010Z,82.93
2022-10-19T01:15:55.903Z,82.76
2022-10-19T01:21:15.598Z,83.07
2022-10-19T01:26:31.570Z,82.97
2022-10-19T01:31:39.330Z,82.93
2022-10-19T01:36:44.432Z,82.73
2022-10-19T01:41:50.224Z,82.96
2022-10-19T01:46:56.674Z,82.84
2022-10-19T01:52:01.898Z,82.96
2022-10-19T01:57:07.259Z,83.03
2022-10-19T02:02:12.041Z,82.99
2022-10-19T02:07:14.856Z,82.98
2022-10-19T02:12:18.272Z,82.79
2022-10-19T02:17:24.935Z,82.97
2022-10-19T02:22:27.689Z,82.67
2022-10-19T02:27:30.783Z,82.53
2022-10-19T02:32:35.141Z,82.56
2022-10-19T02:37:38.175Z,82.65
2022-10-19T02:42:44.343Z,82.68
2022-10-19T02:47:51.137Z,82.49
2022-10-19T02:52:53.822Z,82.63
2022-10-19T02:57:57.266Z,82.76
2022-10-19T03:03:02.854Z,82.71
2022-10-19T03:08:06.206Z,82.50
2022-10-19T03:13:08.974Z,82.38
2022-10-19T03:18:13.030Z,82.32
2022-10-19T03:23:15.905Z,82.50
2022-10-19T03:28:18.726Z,82.31
2022-10-19T03:33:23.139Z,82.56
2022-10-19T03:38:25.847Z,82.59
2022-10-19T03:43:28.618Z,82.54
2022-10-19T03:48:32.664Z,83.27
2022-10-19T03:53:35.858Z,83.21
2022-10-19T03:58:39.315Z,83.44
2022-10-19T04:03:43.548Z,83.47
2022-10-19T04:08:49.990Z,83.45
2022-10-19T04:13:53.726Z,83.28
2022-10-19T04:18:57.918Z,83.09
2022-10-19T04:24:02.303Z,83.03
2022-10-19T04:29:05.213Z,83.31
2022-10-19T04:34:09.732Z,83.21
2022-10-19T04:39:12.855Z,83.00
2022-10-19T04:44:15.685Z,83.01
2022-10-19T04:49:20.497Z,83.03
2022-10-19T04:54:23.418Z,83.16
2022-10-19T04:59:26.226Z,82.74
2022-10-19T05:04:30.335Z,82.83
2022-10-19T05:09:33.149Z,82.93
2022-10-19T05:14:37.869Z,82.62
2022-10-19T05:19:44.650Z,82.66
2022-10-19T05:24:47.366Z,82.66
2022-10-19T05:29:50.063Z,82.82
2022-10-19T05:34:54.090Z,82.55
2022-10-19T05:39:56.770Z,82.77
2022-10-19T05:44:59.424Z,82.66
2022-10-19T05:50:03.482Z,82.60
2022-10-19T05:55:07.322Z,82.54
2022-10-19T06:00:11.706Z,82.75
2022-10-19T06:05:18.640Z,82.57
2022-10-19T06:10:21.594Z,82.62
2022-10-19T06:15:24.266Z,82.54
2022-10-19T06:20:29.448Z,82.32
2022-10-19T06:25:32.313Z,82.50
2022-10-19T06:30:35.066Z,82.55
2022-10-19T06:35:42.256Z,82.52
2022-10-19T06:40:45.023Z,82.69
2022-10-19T06:45:47.665Z,82.33
2022-10-19T06:50:58.330Z,82.78
2022-10-19T06:56:01.904Z,82.95
2022-10-19T07:01:07.467Z,82.87
2022-10-19T07:06:13.100Z,82.80
2022-10-19T07:11:18.404Z,82.70
2022-10-19T07:16:21.758Z,82.63
2022-10-19T07:21:25.988Z,82.89
2022-10-19T07:26:30.480Z,80.84
2022-10-19T07:31:33.521Z,77.88
2022-10-19T07:36:37.859Z,76.49
2022-10-19T07:41:40.765Z,75.60
2022-10-19T07:46:44.020Z,74.48
2022-10-19T07:51:48.191Z,73.33
2022-10-19T07:56:50.911Z,73.17
2022-10-19T08:01:54.535Z,72.70
2022-10-19T08:06:58.630Z,72.14
2022-10-19T08:12:01.387Z,72.13
2022-10-19T08:17:04.058Z,71.60
2022-10-19T08:22:08.208Z,71.44
2022-10-19T08:27:10.923Z,71.01
2022-10-19T08:32:22.916Z,70.78
2022-10-19T08:37:40.789Z,70.51
2022-10-19T08:42:53.179Z,70.11
2022-10-19T08:48:01.326Z,69.86
2022-10-19T08:53:07.160Z,69.81
2022-10-19T08:58:20.878Z,69.67
2022-10-19T09:03:37.574Z,69.29
2022-10-19T09:08:51.914Z,69.96
2022-10-19T09:14:05.616Z,69.80
2022-10-19T09:19:14.367Z,69.85
2022-10-19T09:24:28.932Z,70.21
2022-10-19T09:29:38.161Z,69.91
2022-10-19T09:34:44.889Z,70.11
2022-10-19T09:39:53.962Z,69.96
2022-10-19T09:44:59.605Z,70.09
2022-10-19T09:50:15.563Z,70.07
2022-10-19T09:55:28.601Z,70.19
2022-10-19T10:00:37.597Z,70.07
2022-10-19T10:05:41.045Z,70.22
2022-10-19T10:10:47.939Z,70.06
2022-10-19T10:15:53.326Z,70.05
2022-10-19T10:21:02.577Z,70.19
2022-10-19T10:26:17.729Z,69.98
2022-10-19T10:31:23.407Z,70.04
2022-10-19T10:36:26.819Z,70.15
2022-10-19T10:41:35.713Z,70.30
2022-10-19T10:46:43.440Z,70.53
2022-10-19T10:51:52.200Z,70.62
2022-10-19T10:57:13.715Z,71.07
2022-10-19T11:02:27.436Z,71.55
2022-10-19T11:07:31.556Z,71.39
2022-10-19T11:12:39.542Z,71.42
2022-10-19T11:17:52.403Z,71.07
2022-10-19T11:23:02.553Z,71.48
2022-10-19T11:28:19.414Z,71.48
2022-10-19T11:33:34.305Z,71.45
2022-10-19T11:38:44.058Z,71.65
2022-10-19T11:43:57.113Z,71.77
2022-10-19T11:49:07.700Z,71.69
2022-10-19T11:54:19.482Z,71.38
2022-10-19T11:59:28.911Z,71.72
2022-10-19T12:04:42.243Z,72.00
2022-10-19T12:09:51.235Z,72.27
2022-10-19T12:15:00.676Z,72.19
2022-10-19T12:20:06.701Z,72.05
2022-10-19T12:25:14.695Z,72.08
2022-10-19T12:30:21.864Z,72.46
2022-10-19T12:35:36.992Z,72.20
2022-10-19T12:40:41.658Z,72.23
2022-10-19T12:45:49.729Z,72.48
2022-10-19T12:51:16.982Z,72.30
2022-10-19T12:56:24.330Z,72.75
2022-10-19T13:01:30.448Z,72.53
2022-10-19T13:06:35.518Z,72.81
2022-10-19T13:12:21.418Z,72.90
2022-10-19T13:17:46.193Z,73.02
2022-10-19T13:22:50.872Z,73.39
2022-10-19T13:27:58.343Z,73.47
2022-10-19T13:33:41.007Z,73.71
2022-10-19T13:38:44.631Z,73.92
2022-10-19T13:44:00.662Z,73.97
2022-10-19T13:49:22.866Z,73.68
2022-10-19T13:54:35.637Z,74.41
2022-10-19T13:59:53.782Z,74.15
2022-10-19T14:05:10.877Z,74.34
2022-10-19T14:10:17.441Z,74.20
2022-10-19T14:15:25.267Z,74.54
2022-10-19T14:20:32.530Z,74.35
2022-10-19T14:25:35.334Z,74.64
2022-10-19T14:30:44.948Z,74.56
2022-10-19T14:35:50.602Z,74.53
2022-10-19T14:40:53.383Z,74.43
2022-10-19T14:46:14.432Z,74.39
2022-10-19T14:51:30.047Z,74.39
2022-10-19T14:56:35.312Z,74.43
2022-10-19T15:01:38.040Z,74.44
2022-10-19T15:06:43.125Z,74.28
2022-10-19T15:11:49.688Z,74.56
2022-10-19T15:16:54.069Z,74.52
2022-10-19T15:22:19.515Z,74.73
2022-10-19T15:27:23.632Z,80.24
2022-10-19T15:32:29.203Z,84.66
2022-10-19T15:37:33.363Z,83.80
2022-10-19T15:42:38.732Z,82.53
2022-10-19T15:48:11.514Z,81.24
2022-10-19T15:53:15.631Z,80.58
2022-10-19T15:58:18.883Z,80.57
2022-10-19T16:03:21.559Z,80.24
2022-10-19T16:08:25.685Z,80.14
2022-10-19T16:13:28.460Z,80.07
2022-10-19T16:18:31.131Z,80.18
2022-10-19T16:23:39.341Z,80.19
2022-10-19T16:28:45.151Z,80.28
2022-10-19T16:33:47.849Z,80.15
2022-10-19T16:38:51.876Z,80.07
2022-10-19T16:43:55.603Z,80.17
2022-10-19T16:48:58.398Z,80.17
2022-10-19T16:54:02.691Z,80.28
2022-10-19T16:59:06.993Z,80.15
2022-10-19T17:04:09.673Z,80.17
2022-10-19T17:09:40.279Z,80.34
2022-10-19T17:14:37.303Z,80.28
2022-10-19T17:19:40.290Z,80.19
2022-10-19T17:24:46.219Z,80.38
2022-10-19T17:29:49.021Z,80.02
2022-10-19T17:34:52.051Z,80.12
2022-10-19T17:39:56.107Z,80.08
2022-10-19T17:44:58.909Z,79.90
2022-10-19T17:50:01.632Z,80.03
2022-10-19T17:55:12.219Z,80.11
2022-10-19T18:00:16.100Z,79.27
2022-10-19T18:05:18.846Z,79.84
2022-10-19T18:10:22.963Z,79.74
2022-10-19T18:15:25.734Z,79.71
2022-10-19T18:20:28.439Z,79.69
2022-10-19T18:25:52.995Z,79.34
2022-10-19T18:30:55.206Z,79.55
2022-10-19T18:35:59.126Z,78.95
2022-10-19T18:41:04.116Z,78.80
2022-10-19T18:46:08.152Z,79.37
2022-10-19T18:51:10.906Z,78.06
2022-10-19T18:56:17.035Z,78.64
2022-10-19T19:01:22.833Z,79.22
2022-10-19T19:06:28.892Z,78.53
2022-10-19T19:11:36.859Z,78.94
2022-10-19T19:16:40.962Z,79.08
2022-10-19T19:21:44.981Z,78.68
2022-10-19T19:26:51.027Z,78.23
2022-10-19T19:31:54.383Z,79.06
2022-10-19T19:36:57.102Z,78.99
2022-10-19T19:42:01.110Z,78.79
2022-10-19T19:47:03.826Z,78.99
2022-10-19T19:52:06.598Z,78.89
2022-10-19T19:57:11.286Z,78.46
2022-10-19T20:02:16.318Z,79.08
2022-10-19T20:07:19.002Z,78.89
2022-10-19T20:12:23.149Z,78.84
2022-10-19T20:17:25.931Z,78.92
2022-10-19T20:22:28.656Z,79.54
2022-10-19T20:27:35.628Z,79.22
2022-10-19T20:32:39.135Z,78.65
2022-10-19T20:37:41.859Z,78.88
2022-10-19T20:42:46.127Z,78.98
2022-10-19T20:47:48.942Z,79.08
2022-10-19T20:52:51.720Z,78.41
2022-10-19T20:57:55.877Z,78.17
2022-10-19T21:02:59.350Z,78.90
2022-10-19T21:08:02.223Z,78.08
2022-10-19T21:13:06.362Z,78.66
2022-10-19T21:18:09.160Z,78.40
2022-10-19T21:23:11.834Z,78.41
2022-10-19T21:28:15.895Z,78.47
2022-10-19T21:33:18.726Z,79.06
2022-10-19T21:38:21.437Z,78.47
2022-10-19T21:43:25.710Z,79.40
2022-10-19T21:48:28.405Z,79.09
2022-10-19T21:53:31.092Z,79.71
2022-10-19T21:58:35.258Z,79.52
2022-10-19T22:03:38.000Z,79.13
2022-10-19T22:08:41.619Z,78.90
2022-10-19T22:13:45.703Z,79.41
2022-10-19T22:18:48.817Z,79.64
2022-10-19T22:23:53.213Z,79.40
2022-10-19T22:28:58.070Z,79.30
2022-10-19T22:34:01.154Z,78.95
2022-10-19T22:39:04.510Z,79.13
2022-10-19T22:44:08.674Z,79.06
2022-10-19T22:49:11.726Z,79.42
2022-10-19T22:54:14.466Z,79.21
2022-10-19T22:59:18.632Z,79.23
2022-10-19T23:04:21.455Z,79.22
2022-10-19T23:09:24.346Z,78.92
2022-10-19T23:14:28.486Z,78.70
2022-10-19T23:19:31.194Z,79.18
2022-10-19T23:24:33.949Z,79.14
2022-10-19T23:29:38.051Z,79.31
2022-10-19T23:34:43.162Z,79.20
2022-10-19T23:39:48.659Z,78.58
2022-10-19T23:44:52.767Z,79.09
2022-10-19T23:49:55.495Z,79.84
2022-10-19T23:54:58.222Z,78.90
